sensor_id;sensor_type;location;lat;lon;timestamp;pressure;altitude;pressure_sealevel;temperature;humidity
7109;BME280;29079;41.930;25.558;2023-05-12T00:01:50;100077.59;;;10.85;81.07
7109;BME280;29079;41.930;25.558;2023-05-12T00:04:23;100074.13;;;10.51;84.61
7109;BME280;29079;41.930;25.558;2023-05-12T00:06:56;100064.34;;;10.40;84.83
7109;BME280;29079;41.930;25.558;2023-05-12T00:09:29;100068.59;;;10.86;83.44
7109;BME280;29079;41.930;25.558;2023-05-12T00:12:03;100059.19;;;10.71;85.85
7109;BME280;29079;41.930;25.558;2023-05-12T00:14:36;100066.94;;;10.85;83.93
7109;BME280;29079;41.930;25.558;2023-05-12T00:17:10;100061.25;;;10.33;83.00
7109;BME280;29079;41.930;25.558;2023-05-12T00:19:44;100067.31;;;10.69;84.24
7109;BME280;29079;41.930;25.558;2023-05-12T00:22:18;100066.34;;;10.25;83.67
7109;BME280;29079;41.930;25.558;2023-05-12T00:24:52;100069.66;;;10.40;83.40
7109;BME280;29079;41.930;25.558;2023-05-12T00:27:26;100073.63;;;10.79;84.03
7109;BME280;29079;41.930;25.558;2023-05-12T00:30:00;100066.38;;;11.14;83.34
7109;BME280;29079;41.930;25.558;2023-05-12T00:32:32;100069.50;;;10.75;83.35
7109;BME280;29079;41.930;25.558;2023-05-12T00:35:05;100070.53;;;11.07;83.09
7109;BME280;29079;41.930;25.558;2023-05-12T00:37:38;100079.78;;;10.12;82.49
7109;BME280;29079;41.930;25.558;2023-05-12T00:40:12;100074.50;;;10.57;83.62
7109;BME280;29079;41.930;25.558;2023-05-12T00:42:46;100065.03;;;10.65;81.86
7109;BME280;29079;41.930;25.558;2023-05-12T00:45:20;100069.78;;;10.38;81.22
7109;BME280;29079;41.930;25.558;2023-05-12T00:47:53;100072.31;;;9.59;84.34
7109;BME280;29079;41.930;25.558;2023-05-12T00:50:26;100071.31;;;10.29;82.59
7109;BME280;29079;41.930;25.558;2023-05-12T00:52:59;100066.09;;;10.28;82.17
7109;BME280;29079;41.930;25.558;2023-05-12T00:55:32;100064.72;;;10.90;83.91
7109;BME280;29079;41.930;25.558;2023-05-12T00:58:07;100070.38;;;10.42;81.81
7109;BME280;29079;41.930;25.558;2023-05-12T01:00:40;100066.59;;;10.67;81.82
7109;BME280;29079;41.930;25.558;2023-05-12T01:03:14;100067.47;;;10.22;85.43
7109;BME280;29079;41.930;25.558;2023-05-12T01:05:48;100066.09;;;10.28;81.87
7109;BME280;29079;41.930;25.558;2023-05-12T01:08:21;100068.53;;;10.20;82.29
7109;BME280;29079;41.930;25.558;2023-05-12T01:10:55;100072.81;;;10.45;84.32
7109;BME280;29079;41.930;25.558;2023-05-12T01:13:29;100070.63;;;10.39;81.45
7109;BME280;29079;41.930;25.558;2023-05-12T01:16:02;100063.59;;;10.38;82.09
7109;BME280;29079;41.930;25.558;2023-05-12T01:18:36;100067.09;;;10.16;81.33
7109;BME280;29079;41.930;25.558;2023-05-12T01:21:09;100056.03;;;10.32;82.70
7109;BME280;29079;41.930;25.558;2023-05-12T01:23:43;100067.16;;;9.91;82.76
7109;BME280;29079;41.930;25.558;2023-05-12T01:26:19;100063.91;;;10.22;82.37
7109;BME280;29079;41.930;25.558;2023-05-12T01:28:53;100062.06;;;9.88;84.76
7109;BME280;29079;41.930;25.558;2023-05-12T01:31:26;100063.09;;;10.21;83.80
7109;BME280;29079;41.930;25.558;2023-05-12T01:33:59;100052.66;;;10.41;84.64
7109;BME280;29079;41.930;25.558;2023-05-12T01:36:32;100052.53;;;10.31;85.72
7109;BME280;29079;41.930;25.558;2023-05-12T01:39:05;100057.75;;;10.33;84.96
7109;BME280;29079;41.930;25.558;2023-05-12T01:41:39;100061.34;;;9.86;82.48
7109;BME280;29079;41.930;25.558;2023-05-12T01:44:12;100059.91;;;9.35;84.60
7109;BME280;29079;41.930;25.558;2023-05-12T01:46:45;100056.09;;;9.62;84.12
7109;BME280;29079;41.930;25.558;2023-05-12T01:49:20;100053.88;;;10.25;86.24
7109;BME280;29079;41.930;25.558;2023-05-12T01:51:53;100067.81;;;10.06;82.17
7109;BME280;29079;41.930;25.558;2023-05-12T01:54:26;100063.53;;;9.92;82.78
7109;BME280;29079;41.930;25.558;2023-05-12T01:57:00;100069.38;;;9.98;83.55
7109;BME280;29079;41.930;25.558;2023-05-12T01:59:33;100072.88;;;9.40;84.92
7109;BME280;29079;41.930;25.558;2023-05-12T02:02:06;100073.56;;;9.89;84.13
7109;BME280;29079;41.930;25.558;2023-05-12T02:04:39;100066.34;;;9.55;84.00
7109;BME280;29079;41.930;25.558;2023-05-12T02:07:13;100069.97;;;9.19;85.54
7109;BME280;29079;41.930;25.558;2023-05-12T02:09:47;100067.78;;;9.37;85.17
7109;BME280;29079;41.930;25.558;2023-05-12T02:12:21;100064.75;;;9.88;84.42
7109;BME280;29079;41.930;25.558;2023-05-12T02:14:54;100063.53;;;9.92;84.02
7109;BME280;29079;41.930;25.558;2023-05-12T02:17:27;100068.03;;;9.45;86.45
7109;BME280;29079;41.930;25.558;2023-05-12T02:20:00;100062.25;;;9.63;83.67
7109;BME280;29079;41.930;25.558;2023-05-12T02:22:33;100059.69;;;10.08;86.56
7109;BME280;29079;41.930;25.558;2023-05-12T02:25:06;100064.38;;;9.93;86.44
7109;BME280;29079;41.930;25.558;2023-05-12T02:27:40;100071.56;;;9.46;84.67
7109;BME280;29079;41.930;25.558;2023-05-12T02:30:15;100070.91;;;9.78;84.75
7109;BME280;29079;41.930;25.558;2023-05-12T02:32:48;100069.94;;;9.90;86.19
7109;BME280;29079;41.930;25.558;2023-05-12T02:35:21;100070.53;;;9.35;88.94
7109;BME280;29079;41.930;25.558;2023-05-12T02:37:54;100066.97;;;10.17;83.10
7109;BME280;29079;41.930;25.558;2023-05-12T02:40:26;100072.75;;;9.41;86.88
7109;BME280;29079;41.930;25.558;2023-05-12T02:43:01;100075.16;;;9.45;85.56
7109;BME280;29079;41.930;25.558;2023-05-12T02:45:34;100070.16;;;9.29;85.67
7109;BME280;29079;41.930;25.558;2023-05-12T02:48:07;100065.34;;;9.34;88.28
7109;BME280;29079;41.930;25.558;2023-05-12T02:50:40;100075.78;;;9.48;83.81
7109;BME280;29079;41.930;25.558;2023-05-12T02:53:13;100079.25;;;9.37;86.24
7109;BME280;29079;41.930;25.558;2023-05-12T02:55:46;100075.28;;;9.43;84.32
7109;BME280;29079;41.930;25.558;2023-05-12T02:58:21;100084.13;;;9.44;85.63
7109;BME280;29079;41.930;25.558;2023-05-12T03:01:08;100087.53;;;9.21;85.10
7109;BME280;29079;41.930;25.558;2023-05-12T03:03:57;100082.56;;;9.41;85.49
7109;BME280;29079;41.930;25.558;2023-05-12T03:06:45;100085.84;;;9.20;85.58
7109;BME280;29079;41.930;25.558;2023-05-12T03:09:17;100094.44;;;9.00;87.02
7109;BME280;29079;41.930;25.558;2023-05-12T03:11:50;100088.00;;;9.15;86.09
7109;BME280;29079;41.930;25.558;2023-05-12T03:14:25;100092.94;;;9.33;86.83
7109;BME280;29079;41.930;25.558;2023-05-12T03:16:59;100095.53;;;9.21;86.27
7109;BME280;29079;41.930;25.558;2023-05-12T03:19:32;100096.88;;;9.03;86.57
7109;BME280;29079;41.930;25.558;2023-05-12T03:22:06;100097.91;;;9.13;86.65
7109;BME280;29079;41.930;25.558;2023-05-12T03:24:39;100091.22;;;8.83;87.82
7109;BME280;29079;41.930;25.558;2023-05-12T03:27:12;100096.63;;;8.95;87.27
7109;BME280;29079;41.930;25.558;2023-05-12T03:29:46;100095.91;;;8.80;87.72
7109;BME280;29079;41.930;25.558;2023-05-12T03:32:19;100094.84;;;8.82;87.71
7109;BME280;29079;41.930;25.558;2023-05-12T03:34:52;100097.50;;;8.82;88.66
7109;BME280;29079;41.930;25.558;2023-05-12T03:37:25;100099.44;;;9.04;87.83
7109;BME280;29079;41.930;25.558;2023-05-12T03:39:58;100106.41;;;8.94;87.65
7109;BME280;29079;41.930;25.558;2023-05-12T03:42:31;100106.81;;;9.01;87.36
7109;BME280;29079;41.930;25.558;2023-05-12T03:45:06;100107.66;;;9.01;87.45
7109;BME280;29079;41.930;25.558;2023-05-12T03:47:39;100113.16;;;9.11;87.08
7109;BME280;29079;41.930;25.558;2023-05-12T03:50:13;100109.63;;;9.35;86.02
7109;BME280;29079;41.930;25.558;2023-05-12T03:52:46;100117.38;;;9.27;87.00
7109;BME280;29079;41.930;25.558;2023-05-12T03:55:19;100120.75;;;9.29;86.60
7109;BME280;29079;41.930;25.558;2023-05-12T03:57:51;100133.28;;;9.15;87.06
7109;BME280;29079;41.930;25.558;2023-05-12T04:00:28;100126.16;;;9.03;88.11
7109;BME280;29079;41.930;25.558;2023-05-12T04:03:01;100122.84;;;9.12;87.45
7109;BME280;29079;41.930;25.558;2023-05-12T04:05:34;100125.81;;;9.07;87.74
7109;BME280;29079;41.930;25.558;2023-05-12T04:08:10;100129.47;;;9.06;87.21
7109;BME280;29079;41.930;25.558;2023-05-12T04:10:43;100129.81;;;9.02;87.76
7109;BME280;29079;41.930;25.558;2023-05-12T04:13:15;100125.19;;;9.17;87.09
7109;BME280;29079;41.930;25.558;2023-05-12T04:15:50;100128.22;;;9.23;86.56
7109;BME280;29079;41.930;25.558;2023-05-12T04:18:23;100134.53;;;9.22;86.70
7109;BME280;29079;41.930;25.558;2023-05-12T04:20:56;100130.69;;;9.27;87.06
7109;BME280;29079;41.930;25.558;2023-05-12T04:23:29;100128.41;;;9.33;88.90
7109;BME280;29079;41.930;25.558;2023-05-12T04:26:02;100130.00;;;9.36;87.04
7109;BME280;29079;41.930;25.558;2023-05-12T04:28:36;100124.78;;;9.58;86.68
7109;BME280;29079;41.930;25.558;2023-05-12T04:31:10;100133.72;;;9.57;87.30
7109;BME280;29079;41.930;25.558;2023-05-12T04:33:44;100129.75;;;9.39;86.55
7109;BME280;29079;41.930;25.558;2023-05-12T04:36:18;100129.63;;;9.40;87.87
7109;BME280;29079;41.930;25.558;2023-05-12T04:38:51;100125.53;;;9.72;85.83
7109;BME280;29079;41.930;25.558;2023-05-12T04:41:26;100131.34;;;9.77;86.94
7109;BME280;29079;41.930;25.558;2023-05-12T04:43:59;100129.75;;;10.10;84.12
7109;BME280;29079;41.930;25.558;2023-05-12T04:46:33;100123.19;;;10.03;84.98
7109;BME280;29079;41.930;25.558;2023-05-12T04:49:06;100132.25;;;10.36;82.63
7109;BME280;29079;41.930;25.558;2023-05-12T04:51:39;100133.72;;;10.04;83.45
7109;BME280;29079;41.930;25.558;2023-05-12T04:54:13;100126.19;;;9.87;84.11
7109;BME280;29079;41.930;25.558;2023-05-12T04:56:47;100129.91;;;10.42;82.01
7109;BME280;29079;41.930;25.558;2023-05-12T04:59:20;100135.13;;;10.33;81.91
7109;BME280;29079;41.930;25.558;2023-05-12T05:01:54;100131.13;;;10.61;82.45
7109;BME280;29079;41.930;25.558;2023-05-12T05:04:27;100136.81;;;10.22;81.49
7109;BME280;29079;41.930;25.558;2023-05-12T05:07:00;100126.41;;;10.76;80.96
7109;BME280;29079;41.930;25.558;2023-05-12T05:09:33;100129.94;;;10.88;83.26
7109;BME280;29079;41.930;25.558;2023-05-12T05:12:07;100127.47;;;10.96;80.00
7109;BME280;29079;41.930;25.558;2023-05-12T05:14:40;100124.94;;;11.27;82.74
7109;BME280;29079;41.930;25.558;2023-05-12T05:17:14;100135.84;;;10.91;79.94
7109;BME280;29079;41.930;25.558;2023-05-12T05:19:47;100130.50;;;10.91;80.36
7109;BME280;29079;41.930;25.558;2023-05-12T05:22:29;100138.56;;;11.24;80.71
7109;BME280;29079;41.930;25.558;2023-05-12T05:25:03;100135.91;;;11.56;80.75
7109;BME280;29079;41.930;25.558;2023-05-12T05:27:36;100132.63;;;11.20;79.67
7109;BME280;29079;41.930;25.558;2023-05-12T05:30:09;100131.13;;;10.84;78.11
7109;BME280;29079;41.930;25.558;2023-05-12T05:32:44;100135.81;;;11.14;81.94
7109;BME280;29079;41.930;25.558;2023-05-12T05:35:17;100133.41;;;11.00;79.67
7109;BME280;29079;41.930;25.558;2023-05-12T05:37:50;100137.50;;;11.15;81.37
7109;BME280;29079;41.930;25.558;2023-05-12T05:40:25;100140.16;;;11.15;82.47
7109;BME280;29079;41.930;25.558;2023-05-12T05:42:59;100141.31;;;11.01;81.19
7109;BME280;29079;41.930;25.558;2023-05-12T05:45:32;100132.97;;;10.60;83.93
7109;BME280;29079;41.930;25.558;2023-05-12T05:48:07;100131.50;;;10.79;81.81
7109;BME280;29079;41.930;25.558;2023-05-12T05:50:40;100138.72;;;11.11;81.17
7109;BME280;29079;41.930;25.558;2023-05-12T05:53:13;100135.47;;;11.40;81.25
7109;BME280;29079;41.930;25.558;2023-05-12T05:55:48;100140.66;;;11.20;79.65
7109;BME280;29079;41.930;25.558;2023-05-12T05:58:22;100141.34;;;11.33;80.98
7109;BME280;29079;41.930;25.558;2023-05-12T06:00:55;100144.06;;;11.11;82.54
7109;BME280;29079;41.930;25.558;2023-05-12T06:03:29;100137.59;;;11.25;80.81
7109;BME280;29079;41.930;25.558;2023-05-12T06:06:02;100138.31;;;11.27;80.97
7109;BME280;29079;41.930;25.558;2023-05-12T06:08:35;100134.75;;;11.49;81.11
7109;BME280;29079;41.930;25.558;2023-05-12T06:11:08;100135.84;;;11.46;82.37
7109;BME280;29079;41.930;25.558;2023-05-12T06:13:41;100142.06;;;11.36;80.60
7109;BME280;29079;41.930;25.558;2023-05-12T06:16:14;100138.78;;;11.64;81.12
7109;BME280;29079;41.930;25.558;2023-05-12T06:18:48;100132.38;;;11.88;81.00
7109;BME280;29079;41.930;25.558;2023-05-12T06:21:21;100133.38;;;11.55;80.88
7109;BME280;29079;41.930;25.558;2023-05-12T06:23:54;100135.16;;;11.65;81.31
7109;BME280;29079;41.930;25.558;2023-05-12T06:26:27;100135.53;;;11.82;80.70
7109;BME280;29079;41.930;25.558;2023-05-12T06:29:00;100133.00;;;11.80;78.25
7109;BME280;29079;41.930;25.558;2023-05-12T06:31:34;100138.75;;;11.76;82.04
7109;BME280;29079;41.930;25.558;2023-05-12T06:34:08;100138.81;;;11.85;79.77
7109;BME280;29079;41.930;25.558;2023-05-12T06:36:42;100139.47;;;11.78;78.27
7109;BME280;29079;41.930;25.558;2023-05-12T06:39:14;100137.84;;;11.87;78.91
7109;BME280;29079;41.930;25.558;2023-05-12T06:41:48;100143.78;;;11.90;79.54
7109;BME280;29079;41.930;25.558;2023-05-12T06:44:21;100135.88;;;11.89;77.32
7109;BME280;29079;41.930;25.558;2023-05-12T06:46:54;100134.91;;;12.11;78.42
7109;BME280;29079;41.930;25.558;2023-05-12T06:49:28;100061.25;;;11.85;78.89
7109;BME280;29079;41.930;25.558;2023-05-12T06:52:01;100129.78;;;12.19;78.65
7109;BME280;29079;41.930;25.558;2023-05-12T06:54:34;100122.91;;;12.26;78.64
7109;BME280;29079;41.930;25.558;2023-05-12T06:57:07;100127.50;;;12.45;78.23
7109;BME280;29079;41.930;25.558;2023-05-12T06:59:41;100127.91;;;12.41;77.49
7109;BME280;29079;41.930;25.558;2023-05-12T07:02:14;100130.47;;;12.42;78.75
7109;BME280;29079;41.930;25.558;2023-05-12T07:04:48;100131.75;;;12.48;77.20
7109;BME280;29079;41.930;25.558;2023-05-12T07:07:21;100123.88;;;12.25;75.99
7109;BME280;29079;41.930;25.558;2023-05-12T07:09:54;100130.03;;;12.16;76.33
7109;BME280;29079;41.930;25.558;2023-05-12T07:12:27;100131.22;;;12.02;77.48
7109;BME280;29079;41.930;25.558;2023-05-12T07:15:02;100133.13;;;12.42;78.05
7109;BME280;29079;41.930;25.558;2023-05-12T07:17:36;100127.03;;;12.09;76.19
7109;BME280;29079;41.930;25.558;2023-05-12T07:20:11;100127.72;;;12.32;78.56
7109;BME280;29079;41.930;25.558;2023-05-12T07:22:44;100136.50;;;12.34;77.42
7109;BME280;29079;41.930;25.558;2023-05-12T07:25:17;100133.75;;;12.25;77.77
7109;BME280;29079;41.930;25.558;2023-05-12T07:27:50;100135.31;;;12.27;76.56
7109;BME280;29079;41.930;25.558;2023-05-12T07:30:24;100135.22;;;12.39;76.73
7109;BME280;29079;41.930;25.558;2023-05-12T07:32:57;100130.41;;;12.32;74.06
7109;BME280;29079;41.930;25.558;2023-05-12T07:35:33;100137.88;;;12.39;74.69
7109;BME280;29079;41.930;25.558;2023-05-12T07:38:06;100140.84;;;12.35;72.45
7109;BME280;29079;41.930;25.558;2023-05-12T07:40:40;100143.75;;;12.53;74.52
7109;BME280;29079;41.930;25.558;2023-05-12T07:43:13;100149.06;;;12.44;74.64
7109;BME280;29079;41.930;25.558;2023-05-12T07:45:47;100145.06;;;12.69;73.71
7109;BME280;29079;41.930;25.558;2023-05-12T07:48:21;100149.13;;;12.53;72.24
7109;BME280;29079;41.930;25.558;2023-05-12T07:50:55;100146.38;;;12.44;73.77
7109;BME280;29079;41.930;25.558;2023-05-12T07:53:28;100142.53;;;12.67;73.09
7109;BME280;29079;41.930;25.558;2023-05-12T07:56:02;100137.97;;;12.89;73.92
7109;BME280;29079;41.930;25.558;2023-05-12T07:58:34;100140.72;;;13.09;72.67
7109;BME280;29079;41.930;25.558;2023-05-12T08:01:07;100129.78;;;13.41;69.57
7109;BME280;29079;41.930;25.558;2023-05-12T08:03:40;100134.56;;;13.37;70.64
7109;BME280;29079;41.930;25.558;2023-05-12T08:06:15;100128.94;;;13.40;69.14
7109;BME280;29079;41.930;25.558;2023-05-12T08:08:48;100140.91;;;13.36;70.52
7109;BME280;29079;41.930;25.558;2023-05-12T08:11:21;100144.88;;;13.42;69.76
7109;BME280;29079;41.930;25.558;2023-05-12T08:13:53;100139.63;;;13.31;70.51
7109;BME280;29079;41.930;25.558;2023-05-12T08:16:26;100136.22;;;13.19;68.58
7109;BME280;29079;41.930;25.558;2023-05-12T08:19:00;100137.41;;;12.95;67.99
7109;BME280;29079;41.930;25.558;2023-05-12T08:21:34;100137.19;;;13.18;70.67
7109;BME280;29079;41.930;25.558;2023-05-12T08:24:07;100144.59;;;13.35;68.91
7109;BME280;29079;41.930;25.558;2023-05-12T08:26:40;100147.28;;;13.45;69.64
7109;BME280;29079;41.930;25.558;2023-05-12T08:29:13;100143.59;;;13.46;65.25
7109;BME280;29079;41.930;25.558;2023-05-12T08:31:47;100147.56;;;13.52;67.15
7109;BME280;29079;41.930;25.558;2023-05-12T08:34:20;100151.94;;;13.53;66.79
7109;BME280;29079;41.930;25.558;2023-05-12T08:36:54;100143.59;;;13.36;63.83
7109;BME280;29079;41.930;25.558;2023-05-12T08:39:27;100147.41;;;13.44;68.82
7109;BME280;29079;41.930;25.558;2023-05-12T08:42:04;100134.00;;;13.44;67.28
7109;BME280;29079;41.930;25.558;2023-05-12T08:44:41;100142.28;;;13.31;67.57
7109;BME280;29079;41.930;25.558;2023-05-12T08:47:14;100137.63;;;13.23;68.98
7109;BME280;29079;41.930;25.558;2023-05-12T08:50:00;100140.34;;;13.43;69.37
7109;BME280;29079;41.930;25.558;2023-05-12T08:52:35;100146.41;;;13.45;67.59
7109;BME280;29079;41.930;25.558;2023-05-12T08:55:08;100142.44;;;13.29;66.69
7109;BME280;29079;41.930;25.558;2023-05-12T08:57:42;100145.31;;;13.57;68.25
7109;BME280;29079;41.930;25.558;2023-05-12T09:00:19;100143.91;;;13.63;65.88
7109;BME280;29079;41.930;25.558;2023-05-12T09:02:52;100145.47;;;13.65;68.47
7109;BME280;29079;41.930;25.558;2023-05-12T09:05:26;100141.22;;;13.53;66.41
7109;BME280;29079;41.930;25.558;2023-05-12T09:08:02;100140.22;;;13.73;66.47
7109;BME280;29079;41.930;25.558;2023-05-12T09:10:36;100137.25;;;13.76;65.40
7109;BME280;29079;41.930;25.558;2023-05-12T09:13:16;100132.31;;;13.82;67.42
7109;BME280;29079;41.930;25.558;2023-05-12T09:15:51;100138.13;;;13.87;65.84
7109;BME280;29079;41.930;25.558;2023-05-12T09:18:29;100137.69;;;13.91;68.17
7109;BME280;29079;41.930;25.558;2023-05-12T09:21:05;100131.44;;;13.91;65.67
7109;BME280;29079;41.930;25.558;2023-05-12T09:23:39;100130.59;;;13.81;67.32
7109;BME280;29079;41.930;25.558;2023-05-12T09:26:12;100125.97;;;13.83;63.20
7109;BME280;29079;41.930;25.558;2023-05-12T09:28:45;100136.53;;;13.94;66.06
7109;BME280;29079;41.930;25.558;2023-05-12T09:31:21;100133.44;;;13.99;67.08
7109;BME280;29079;41.930;25.558;2023-05-12T09:33:55;100134.00;;;13.83;63.00
7109;BME280;29079;41.930;25.558;2023-05-12T09:36:28;100138.66;;;13.90;65.87
7109;BME280;29079;41.930;25.558;2023-05-12T09:39:03;100140.63;;;13.98;66.30
7109;BME280;29079;41.930;25.558;2023-05-12T09:41:37;100137.81;;;13.90;65.71
7109;BME280;29079;41.930;25.558;2023-05-12T09:44:13;100136.38;;;14.05;66.29
7109;BME280;29079;41.930;25.558;2023-05-12T09:46:47;100136.06;;;14.08;65.38
7109;BME280;29079;41.930;25.558;2023-05-12T09:49:20;100136.78;;;14.20;67.32
7109;BME280;29079;41.930;25.558;2023-05-12T09:51:55;100135.81;;;14.12;63.73
7109;BME280;29079;41.930;25.558;2023-05-12T09:54:31;100145.22;;;14.35;62.54
7109;BME280;29079;41.930;25.558;2023-05-12T09:57:05;100136.59;;;14.32;60.39
7109;BME280;29079;41.930;25.558;2023-05-12T09:59:39;100134.78;;;14.32;63.29
7109;BME280;29079;41.930;25.558;2023-05-12T10:02:14;100139.38;;;14.50;62.98
7109;BME280;29079;41.930;25.558;2023-05-12T10:04:49;100137.84;;;14.37;60.33
7109;BME280;29079;41.930;25.558;2023-05-12T10:07:24;100128.22;;;14.35;60.87
7109;BME280;29079;41.930;25.558;2023-05-12T10:10:01;100127.63;;;14.51;63.80
7109;BME280;29079;41.930;25.558;2023-05-12T10:12:36;100131.31;;;14.50;64.40
7109;BME280;29079;41.930;25.558;2023-05-12T10:15:10;100121.06;;;14.73;61.58
7109;BME280;29079;41.930;25.558;2023-05-12T10:17:43;100132.16;;;14.88;58.68
7109;BME280;29079;41.930;25.558;2023-05-12T10:20:17;100134.53;;;14.63;60.64
7109;BME280;29079;41.930;25.558;2023-05-12T10:22:50;100134.34;;;14.74;60.16
7109;BME280;29079;41.930;25.558;2023-05-12T10:25:26;100127.34;;;14.54;61.86
7109;BME280;29079;41.930;25.558;2023-05-12T10:28:00;100134.81;;;14.60;62.97
7109;BME280;29079;41.930;25.558;2023-05-12T10:30:34;100132.16;;;14.50;62.48
7109;BME280;29079;41.930;25.558;2023-05-12T10:33:08;100124.94;;;14.51;64.68
7109;BME280;29079;41.930;25.558;2023-05-12T10:35:42;100124.13;;;14.40;65.35
7109;BME280;29079;41.930;25.558;2023-05-12T10:38:18;100109.16;;;14.75;63.29
7109;BME280;29079;41.930;25.558;2023-05-12T10:40:53;100100.38;;;14.83;63.53
7109;BME280;29079;41.930;25.558;2023-05-12T10:43:29;100098.31;;;14.95;59.51
7109;BME280;29079;41.930;25.558;2023-05-12T10:46:09;100094.06;;;14.74;60.20
7109;BME280;29079;41.930;25.558;2023-05-12T10:48:53;100096.75;;;14.27;58.97
7109;BME280;29079;41.930;25.558;2023-05-12T10:51:27;100106.88;;;14.43;60.61
7109;BME280;29079;41.930;25.558;2023-05-12T10:54:01;100096.72;;;14.47;60.66
7109;BME280;29079;41.930;25.558;2023-05-12T10:56:41;100093.66;;;14.59;61.82
7109;BME280;29079;41.930;25.558;2023-05-12T10:59:16;100089.47;;;14.85;63.43
7109;BME280;29079;41.930;25.558;2023-05-12T11:01:57;100085.97;;;14.84;60.04
7109;BME280;29079;41.930;25.558;2023-05-12T11:04:34;100091.34;;;15.02;62.14
7109;BME280;29079;41.930;25.558;2023-05-12T11:07:09;100086.59;;;15.14;58.89
7109;BME280;29079;41.930;25.558;2023-05-12T11:09:44;100081.00;;;15.25;61.38
7109;BME280;29079;41.930;25.558;2023-05-12T11:12:30;100084.47;;;14.90;60.42
7109;BME280;29079;41.930;25.558;2023-05-12T11:15:04;100079.66;;;14.93;59.76
7109;BME280;29079;41.930;25.558;2023-05-12T11:17:38;100079.31;;;15.06;60.17
7109;BME280;29079;41.930;25.558;2023-05-12T11:20:20;100075.78;;;15.24;59.57
7109;BME280;29079;41.930;25.558;2023-05-12T11:22:53;100079.47;;;15.23;60.10
7109;BME280;29079;41.930;25.558;2023-05-12T11:25:26;100074.16;;;15.13;58.04
7109;BME280;29079;41.930;25.558;2023-05-12T11:28:01;100067.16;;;15.02;58.09
7109;BME280;29079;41.930;25.558;2023-05-12T11:30:34;100073.78;;;15.08;60.43
7109;BME280;29079;41.930;25.558;2023-05-12T11:33:07;100070.91;;;15.27;59.02
7109;BME280;29079;41.930;25.558;2023-05-12T11:35:41;100062.38;;;15.32;59.44
7109;BME280;29079;41.930;25.558;2023-05-12T11:38:14;100059.63;;;15.42;56.49
7109;BME280;29079;41.930;25.558;2023-05-12T11:40:48;100055.88;;;15.53;56.10
7109;BME280;29079;41.930;25.558;2023-05-12T11:43:22;100060.47;;;15.60;56.10
7109;BME280;29079;41.930;25.558;2023-05-12T11:45:55;100066.75;;;15.69;56.91
7109;BME280;29079;41.930;25.558;2023-05-12T11:48:32;100066.66;;;15.61;56.82
7109;BME280;29079;41.930;25.558;2023-05-12T11:51:05;100062.16;;;15.43;58.20
7109;BME280;29079;41.930;25.558;2023-05-12T11:53:39;100059.03;;;15.30;56.50
7109;BME280;29079;41.930;25.558;2023-05-12T11:56:16;100062.47;;;15.40;56.61
7109;BME280;29079;41.930;25.558;2023-05-12T11:58:54;100058.63;;;15.43;57.80
7109;BME280;29079;41.930;25.558;2023-05-12T12:01:28;100049.63;;;15.52;59.75
7109;BME280;29079;41.930;25.558;2023-05-12T12:04:00;100058.28;;;15.64;55.85
7109;BME280;29079;41.930;25.558;2023-05-12T12:06:41;100048.06;;;15.86;54.33
7109;BME280;29079;41.930;25.558;2023-05-12T12:09:14;100038.91;;;15.78;52.69
7109;BME280;29079;41.930;25.558;2023-05-12T12:11:47;100034.41;;;15.79;57.99
7109;BME280;29079;41.930;25.558;2023-05-12T12:14:22;100039.22;;;15.93;59.09
7109;BME280;29079;41.930;25.558;2023-05-12T12:16:55;100054.88;;;15.98;56.91
7109;BME280;29079;41.930;25.558;2023-05-12T12:19:29;100052.53;;;16.03;57.76
7109;BME280;29079;41.930;25.558;2023-05-12T12:22:02;100051.00;;;15.74;57.04
7109;BME280;29079;41.930;25.558;2023-05-12T12:24:35;100052.66;;;15.75;59.14
7109;BME280;29079;41.930;25.558;2023-05-12T12:27:08;100044.91;;;15.72;56.09
7109;BME280;29079;41.930;25.558;2023-05-12T12:29:42;100042.22;;;15.72;54.51
7109;BME280;29079;41.930;25.558;2023-05-12T12:32:15;100042.47;;;15.79;54.81
7109;BME280;29079;41.930;25.558;2023-05-12T12:34:48;100027.72;;;15.83;59.86
7109;BME280;29079;41.930;25.558;2023-05-12T12:37:22;100037.50;;;15.92;52.92
7109;BME280;29079;41.930;25.558;2023-05-12T12:39:55;100034.22;;;16.07;52.95
7109;BME280;29079;41.930;25.558;2023-05-12T12:42:28;100034.56;;;16.04;53.43
7109;BME280;29079;41.930;25.558;2023-05-12T12:45:03;100028.75;;;15.90;51.86
7109;BME280;29079;41.930;25.558;2023-05-12T12:47:36;100036.22;;;16.05;52.04
7109;BME280;29079;41.930;25.558;2023-05-12T12:50:09;100030.06;;;16.12;53.19
7109;BME280;29079;41.930;25.558;2023-05-12T12:52:43;100027.22;;;16.14;52.57
7109;BME280;29079;41.930;25.558;2023-05-12T12:55:16;100022.66;;;16.14;51.62
7109;BME280;29079;41.930;25.558;2023-05-12T12:57:49;100023.78;;;16.04;53.18
7109;BME280;29079;41.930;25.558;2023-05-12T13:00:23;100024.00;;;15.84;56.50
7109;BME280;29079;41.930;25.558;2023-05-12T13:02:57;100030.56;;;15.81;54.81
7109;BME280;29079;41.930;25.558;2023-05-12T13:05:31;100026.19;;;15.89;57.47
7109;BME280;29079;41.930;25.558;2023-05-12T13:08:04;100027.56;;;15.93;53.78
7109;BME280;29079;41.930;25.558;2023-05-12T13:10:37;100022.09;;;16.02;56.14
7109;BME280;29079;41.930;25.558;2023-05-12T13:13:12;100012.69;;;16.07;52.24
7109;BME280;29079;41.930;25.558;2023-05-12T13:15:46;100016.28;;;16.15;50.67
7109;BME280;29079;41.930;25.558;2023-05-12T13:18:19;100015.94;;;16.18;53.45
7109;BME280;29079;41.930;25.558;2023-05-12T13:20:52;100023.97;;;16.10;52.92
7109;BME280;29079;41.930;25.558;2023-05-12T13:23:25;100016.28;;;16.15;56.55
7109;BME280;29079;41.930;25.558;2023-05-12T13:25:58;100017.59;;;16.11;58.08
7109;BME280;29079;41.930;25.558;2023-05-12T13:28:31;100024.88;;;15.93;54.41